Hovedside
METAR-TAF:

METAR-TAF

Lufthavner :

Bahrain, Bahrain

breddegrad: 26-16N, lengdegrad: 050-39E, høyde over havet: 2 m

Gjeldene værobservasjon

Denne rapporten ble laget for 9 minutter siden, klokken 08:30 UTC
Vind 10 kt fra Nordvest, skiftende mellom Vest-nordvest og Nord
Temperatur 29°C
Luftfuktighet 35%
Trykk 1016 hPa
Sikt 10 km eller mer
Få skyer i en høyde av 3000 ft

METAR: OBBI 130830Z 32010KT 290V350 9999 FEW030 29/12 Q1016 NOSIG

Tid: 11:39 (08:39 UTC)

Varsel

Denne rapporten ble laget for 3 timer og 39 minutter siden, klokken 05:00 UTC
Varsel gyldig fra 13. klokken 06 UTC til 14. klokken 12 UTC
Vind 8 kt fra Nord
Sikt 10 km eller mer
Få skyer i en høyde av 3000 ft

TAF: OBBI 130500Z 1306/1412 35008KT 9999 FEW030

Værobservasjoner og værvarsel for over 4000 flyplasser (METAR- og TAF-rapporter).

Tilgjengelige stasjoner er representert av de røde og gule prikkene på kartet.

Hold musepekeren over prikken for å se navnet på stasjonen.

Klikk så for å se værobservasjoner og -varsler.

For å forandre kartet kan du klikke på den grønne knappen med svart kryss for å zoome inn, på den grønne knappen med strek for å zoome ut, eller på de grønne pilene for å se tilstøtende kart.


METAR-TAF: